createdAt,value
2022-09-12T00:01:51.594Z,100.00
2022-09-12T00:04:18.442Z,100.00
2022-09-12T00:06:45.210Z,100.00
2022-09-12T00:09:13.809Z,100.00
2022-09-12T00:11:44.064Z,100.00
2022-09-12T00:14:14.703Z,100.00
2022-09-12T00:16:42.859Z,100.00
2022-09-12T00:19:10.915Z,100.00
2022-09-12T00:21:39.747Z,100.00
2022-09-12T00:24:07.486Z,100.00
2022-09-12T00:26:34.353Z,100.00
2022-09-12T00:29:01.117Z,100.00
2022-09-12T00:31:28.459Z,100.00
2022-09-12T00:33:58.084Z,100.00
2022-09-12T00:36:25.871Z,100.00
2022-09-12T00:38:53.682Z,100.00
2022-09-12T00:41:26.466Z,100.00
2022-09-12T00:44:01.408Z,100.00
2022-09-12T00:46:48.720Z,100.00
2022-09-12T00:49:29.972Z,100.00
2022-09-12T00:52:08.460Z,100.00
2022-09-12T00:55:01.731Z,100.00
2022-09-12T00:57:36.089Z,100.00
2022-09-12T01:00:15.804Z,100.00
2022-09-12T01:02:49.386Z,100.00
2022-09-12T01:05:16.406Z,100.00
2022-09-12T01:07:44.717Z,100.00
2022-09-12T01:10:11.603Z,100.00
2022-09-12T01:12:42.130Z,100.00
2022-09-12T01:15:09.241Z,100.00
2022-09-12T01:18:11.483Z,100.00
2022-09-12T01:21:11.195Z,100.00
2022-09-12T01:24:16.712Z,100.00
2022-09-12T01:26:52.275Z,100.00
2022-09-12T01:29:28.185Z,100.00
2022-09-12T01:32:01.554Z,100.00
2022-09-12T01:34:53.953Z,100.00
2022-09-12T01:37:33.041Z,100.00
2022-09-12T01:40:16.255Z,100.00
2022-09-12T01:43:03.270Z,100.00
2022-09-12T01:45:46.806Z,100.00
2022-09-12T01:48:20.481Z,100.00
2022-09-12T01:51:06.189Z,100.00
2022-09-12T01:53:42.408Z,100.00
2022-09-12T01:56:29.790Z,100.00
2022-09-12T01:59:08.025Z,100.00
2022-09-12T02:01:55.067Z,100.00
2022-09-12T02:04:44.686Z,100.00
2022-09-12T02:07:18.305Z,100.00
2022-09-12T02:09:50.325Z,100.00
2022-09-12T02:12:22.060Z,100.00
2022-09-12T02:14:55.729Z,100.00
2022-09-12T02:17:24.759Z,100.00
2022-09-12T02:20:06.384Z,100.00
2022-09-12T02:22:35.786Z,100.00
2022-09-12T02:25:05.365Z,100.00
2022-09-12T02:27:44.718Z,100.00
2022-09-12T02:30:14.698Z,100.00
2022-09-12T02:32:52.278Z,100.00
2022-09-12T02:35:51.320Z,100.00
2022-09-12T02:38:26.783Z,100.00
2022-09-12T02:40:54.449Z,100.00
2022-09-12T02:43:21.230Z,100.00
2022-09-12T02:45:48.703Z,100.00
2022-09-12T02:48:27.031Z,100.00
2022-09-12T02:50:54.566Z,100.00
2022-09-12T02:53:22.457Z,100.00
2022-09-12T02:55:50.181Z,100.00
2022-09-12T02:58:21.167Z,100.00
2022-09-12T03:01:05.478Z,100.00
2022-09-12T03:04:00.266Z,100.00
2022-09-12T03:06:52.696Z,100.00
2022-09-12T03:18:32.912Z,100.00
2022-09-12T03:21:43.338Z,100.00
2022-09-12T03:24:21.196Z,100.00
2022-09-12T03:26:55.423Z,100.00
2022-09-12T03:29:24.696Z,100.00
2022-09-12T03:31:57.285Z,100.00
2022-09-12T03:34:26.248Z,100.00
2022-09-12T03:36:55.466Z,100.00
2022-09-12T03:39:27.237Z,100.00
2022-09-12T03:41:55.006Z,100.00
2022-09-12T03:44:22.163Z,100.00
2022-09-12T03:46:48.940Z,100.00
2022-09-12T03:49:15.951Z,100.00
2022-09-12T03:51:43.294Z,100.00
2022-09-12T03:54:11.798Z,100.00
2022-09-12T03:56:39.430Z,100.00
2022-09-12T03:59:06.837Z,100.00
2022-09-12T04:01:34.507Z,100.00
2022-09-12T04:04:01.747Z,100.00
2022-09-12T04:06:28.546Z,100.00
2022-09-12T04:08:55.583Z,100.00
2022-09-12T04:11:23.765Z,100.00
2022-09-12T04:13:50.684Z,100.00
2022-09-12T04:16:18.994Z,100.00
2022-09-12T04:18:46.794Z,100.00
2022-09-12T04:21:19.643Z,100.00
2022-09-12T04:23:46.455Z,100.00
2022-09-12T04:26:15.239Z,100.00
2022-09-12T04:28:42.263Z,100.00
2022-09-12T04:31:13.321Z,100.00
2022-09-12T04:33:40.153Z,100.00
2022-09-12T04:36:09.757Z,100.00
2022-09-12T04:38:37.473Z,100.00
2022-09-12T04:41:24.876Z,100.00
2022-09-12T04:43:54.179Z,100.00
2022-09-12T04:46:21.633Z,100.00
2022-09-12T04:48:53.254Z,100.00
2022-09-12T04:51:28.191Z,100.00
2022-09-12T04:53:58.739Z,100.00
2022-09-12T04:56:26.931Z,100.00
2022-09-12T04:58:53.781Z,100.00
2022-09-12T05:01:22.522Z,100.00
2022-09-12T05:03:50.751Z,100.00
2022-09-12T05:06:24.058Z,100.00
2022-09-12T05:08:52.260Z,100.00
2022-09-12T05:11:33.014Z,100.00
2022-09-12T05:14:08.320Z,100.00
2022-09-12T05:16:35.321Z,100.00
2022-09-12T05:19:02.437Z,100.00
2022-09-12T05:21:29.453Z,100.00
2022-09-12T05:23:59.648Z,100.00
2022-09-12T05:26:26.625Z,100.00
2022-09-12T05:28:53.875Z,100.00
2022-09-12T05:31:23.465Z,100.00
2022-09-12T05:33:53.062Z,100.00
2022-09-12T05:36:25.308Z,100.00
2022-09-12T05:38:52.489Z,100.00
2022-09-12T05:41:24.822Z,100.00
2022-09-12T05:43:57.702Z,100.00
2022-09-12T05:46:29.682Z,100.00
2022-09-12T05:48:57.348Z,100.00
2022-09-12T05:51:26.991Z,100.00
2022-09-12T05:53:56.933Z,100.00
2022-09-12T05:56:28.936Z,100.00
2022-09-12T05:59:00.316Z,100.00
2022-09-12T06:01:28.136Z,100.00
2022-09-12T06:03:57.892Z,100.00
2022-09-12T06:06:25.704Z,100.00
2022-09-12T06:08:56.010Z,100.00
2022-09-12T06:11:26.766Z,100.00
2022-09-12T06:13:53.603Z,100.00
2022-09-12T06:16:22.665Z,100.00
2022-09-12T06:18:51.962Z,100.00
2022-09-12T06:21:19.683Z,100.00
2022-09-12T06:23:48.167Z,100.00
2022-09-12T06:26:17.472Z,100.00
2022-09-12T06:28:45.677Z,100.00
2022-09-12T06:31:15.352Z,100.00
2022-09-12T06:33:46.091Z,100.00
2022-09-12T06:36:18.772Z,100.00
2022-09-12T06:38:51.445Z,100.00
2022-09-12T06:41:18.333Z,100.00
2022-09-12T06:43:45.096Z,100.00
2022-09-12T06:46:13.196Z,100.00
2022-09-12T06:48:42.135Z,100.00
2022-09-12T06:51:13.330Z,100.00
2022-09-12T06:53:41.050Z,100.00
2022-09-12T06:56:11.488Z,100.00
2022-09-12T06:58:38.553Z,100.00
2022-09-12T07:01:10.314Z,100.00
2022-09-12T07:03:38.347Z,100.00
2022-09-12T07:06:07.898Z,100.00
2022-09-12T07:08:37.127Z,100.00
2022-09-12T07:11:13.105Z,100.00
2022-09-12T07:13:41.444Z,100.00
2022-09-12T07:16:10.586Z,100.00
2022-09-12T07:18:39.067Z,100.00
2022-09-12T07:21:08.562Z,100.00
2022-09-12T07:23:35.579Z,100.00
2022-09-12T07:26:02.768Z,100.00
2022-09-12T07:28:32.636Z,100.00
2022-09-12T07:31:06.517Z,100.00
2022-09-12T07:33:33.639Z,100.00
2022-09-12T07:36:06.428Z,100.00
2022-09-12T07:38:33.239Z,100.00
2022-09-12T07:41:01.794Z,100.00
2022-09-12T07:43:28.674Z,100.00
2022-09-12T07:45:56.967Z,100.00
2022-09-12T07:48:23.926Z,100.00
2022-09-12T07:51:05.999Z,100.00
2022-09-12T07:53:35.258Z,100.00
2022-09-12T07:56:03.198Z,100.00
2022-09-12T07:58:31.270Z,100.00
2022-09-12T08:01:08.870Z,100.00
2022-09-12T08:03:36.408Z,100.00
2022-09-12T08:06:07.607Z,100.00
2022-09-12T08:08:34.581Z,100.00
2022-09-12T08:11:05.991Z,100.00
2022-09-12T08:13:34.762Z,100.00
2022-09-12T08:16:04.699Z,100.00
2022-09-12T08:18:32.733Z,100.00
2022-09-12T08:21:01.406Z,99.72
2022-09-12T08:23:29.344Z,99.04
2022-09-12T08:26:06.077Z,100.00
2022-09-12T08:28:35.426Z,98.37
2022-09-12T08:31:07.735Z,99.20
2022-09-12T08:33:35.355Z,98.08
2022-09-12T08:36:07.660Z,97.36
2022-09-12T08:38:35.770Z,98.06
2022-09-12T08:41:20.802Z,95.38
2022-09-12T08:43:59.574Z,93.99
2022-09-12T08:46:38.764Z,92.06
2022-09-12T08:49:11.169Z,85.06
2022-09-12T08:51:39.893Z,85.67
2022-09-12T08:54:19.653Z,85.12
2022-09-12T08:56:48.297Z,83.60
2022-09-12T08:59:15.739Z,85.41
2022-09-12T09:01:45.522Z,83.90
2022-09-12T09:04:21.653Z,84.90
2022-09-12T09:06:58.341Z,84.74
2022-09-12T09:10:08.357Z,85.18
2022-09-12T09:12:37.912Z,83.80
2022-09-12T09:15:24.809Z,84.46
2022-09-12T09:18:04.597Z,85.50
2022-09-12T09:20:51.679Z,84.97
2022-09-12T09:23:31.857Z,83.52
2022-09-12T09:26:14.813Z,84.10
2022-09-12T09:28:51.660Z,84.55
2022-09-12T09:31:22.113Z,82.55
2022-09-12T09:33:57.301Z,82.88
2022-09-12T09:36:49.524Z,84.57
2022-09-12T09:39:25.796Z,83.45
2022-09-12T09:42:17.066Z,84.03
2022-09-12T09:44:48.349Z,85.33
2022-09-12T09:47:15.792Z,84.16
2022-09-12T09:49:42.881Z,83.22
2022-09-12T09:52:15.144Z,83.32
2022-09-12T09:54:50.288Z,81.91
2022-09-12T09:57:35.014Z,82.30
2022-09-12T10:00:28.654Z,80.78
2022-09-12T10:03:14.528Z,81.27
2022-09-12T10:05:50.829Z,79.53
2022-09-12T10:08:22.496Z,80.86
2022-09-12T10:11:04.497Z,80.01
2022-09-12T10:13:39.839Z,80.36
2022-09-12T10:16:19.708Z,78.10
2022-09-12T10:18:46.777Z,78.61
2022-09-12T10:21:35.239Z,78.51
2022-09-12T10:24:26.885Z,78.97
2022-09-12T10:27:09.810Z,78.27
2022-09-12T10:29:45.775Z,77.06
2022-09-12T10:32:36.232Z,76.86
2022-09-12T10:35:09.126Z,76.60
2022-09-12T10:37:39.530Z,76.29
2022-09-12T10:40:20.802Z,76.02
2022-09-12T10:42:52.088Z,76.12
2022-09-12T10:45:21.749Z,76.43
2022-09-12T10:47:49.371Z,76.09
2022-09-12T10:50:41.427Z,75.58
2022-09-12T10:53:32.258Z,75.85
2022-09-12T10:56:13.122Z,74.66
2022-09-12T10:58:45.752Z,71.60
2022-09-12T11:01:20.940Z,71.89
2022-09-12T11:03:53.791Z,71.16
2022-09-12T11:06:31.904Z,72.39
2022-09-12T11:09:04.525Z,71.39
2022-09-12T11:11:32.121Z,73.00
2022-09-12T11:14:29.881Z,73.05
2022-09-12T11:17:09.710Z,74.58
2022-09-12T11:19:54.975Z,73.89
2022-09-12T11:22:46.632Z,68.61
2022-09-12T11:25:35.137Z,67.84
2022-09-12T11:28:15.888Z,67.65
2022-09-12T11:31:12.116Z,65.93
2022-09-12T11:33:46.856Z,66.08
2022-09-12T11:36:39.670Z,66.16
2022-09-12T11:39:16.334Z,63.30
2022-09-12T11:41:54.582Z,64.79
2022-09-12T11:44:26.551Z,59.01
2022-09-12T11:46:53.285Z,58.74
2022-09-12T11:49:35.415Z,58.68
2022-09-12T11:52:18.613Z,58.57
2022-09-12T11:55:01.226Z,59.54
2022-09-12T11:57:30.932Z,59.95
2022-09-12T12:00:20.578Z,58.64
2022-09-12T12:02:59.253Z,59.11
2022-09-12T12:05:52.223Z,57.10
2022-09-12T12:08:21.323Z,57.05
2022-09-12T12:10:53.987Z,57.36
2022-09-12T12:13:30.198Z,56.01
2022-09-12T12:16:04.182Z,50.55
2022-09-12T12:18:32.778Z,51.78
2022-09-12T12:21:28.482Z,51.74
2022-09-12T12:24:22.825Z,51.19
2022-09-12T12:27:04.659Z,51.30
2022-09-12T12:29:32.772Z,50.41
2022-09-12T12:31:59.505Z,49.65
2022-09-12T12:34:37.722Z,48.86
2022-09-12T12:37:19.923Z,48.97
2022-09-12T12:39:52.714Z,48.63
2022-09-12T12:42:39.642Z,48.91
2022-09-12T12:45:09.292Z,48.35
2022-09-12T12:47:36.004Z,47.98
2022-09-12T12:50:08.054Z,48.15
2022-09-12T12:52:49.813Z,46.64
2022-09-12T12:55:23.420Z,48.49
2022-09-12T12:57:53.941Z,49.01
2022-09-12T13:00:20.631Z,48.15
2022-09-12T13:02:56.351Z,50.28
2022-09-12T13:05:26.128Z,48.40
2022-09-12T13:08:02.891Z,49.40
2022-09-12T13:10:30.786Z,50.10
2022-09-12T13:13:02.269Z,50.47
2022-09-12T13:15:37.977Z,53.50
2022-09-12T13:18:11.265Z,53.25
2022-09-12T13:20:49.981Z,53.42
2022-09-12T13:23:29.149Z,56.54
2022-09-12T13:25:58.291Z,58.34
2022-09-12T13:28:28.791Z,58.58
2022-09-12T13:31:03.195Z,57.88
2022-09-12T13:33:42.396Z,58.80
2022-09-12T13:36:27.478Z,59.29
2022-09-12T13:39:02.821Z,60.01
2022-09-12T13:41:53.366Z,58.79
2022-09-12T13:44:23.038Z,57.41
2022-09-12T13:46:51.109Z,57.02
2022-09-12T13:49:33.124Z,55.17
2022-09-12T13:52:01.432Z,54.14
2022-09-12T13:54:29.663Z,51.12
2022-09-12T13:56:56.968Z,51.15
2022-09-12T13:59:24.697Z,49.10
2022-09-12T14:01:51.628Z,49.14
2022-09-12T14:04:39.298Z,51.03
2022-09-12T14:07:25.754Z,50.80
2022-09-12T14:09:58.419Z,52.32
2022-09-12T14:12:27.227Z,54.35
2022-09-12T14:14:54.279Z,55.07
2022-09-12T14:17:39.632Z,56.48
2022-09-12T14:20:12.359Z,57.92
2022-09-12T14:22:41.471Z,59.37
2022-09-12T14:25:16.322Z,60.46
2022-09-12T14:27:47.725Z,60.17
2022-09-12T14:30:36.567Z,57.11
2022-09-12T14:33:12.299Z,54.86
2022-09-12T14:35:43.623Z,52.69
2022-09-12T14:38:16.812Z,52.06
2022-09-12T14:40:46.465Z,51.51
2022-09-12T14:43:27.872Z,50.60
2022-09-12T14:46:00.542Z,50.01
2022-09-12T14:48:35.678Z,50.23
2022-09-12T14:51:03.732Z,50.26
2022-09-12T14:53:34.977Z,50.93
2022-09-12T14:56:13.152Z,51.33
2022-09-12T14:58:41.009Z,52.28
2022-09-12T15:01:08.083Z,53.17
2022-09-12T15:03:49.989Z,53.24
2022-09-12T15:06:38.548Z,54.66
2022-09-12T15:09:13.673Z,54.06
2022-09-12T15:11:40.399Z,53.45
2022-09-12T15:14:13.502Z,54.56
2022-09-12T15:16:40.500Z,57.41
2022-09-12T15:19:07.227Z,61.33
2022-09-12T15:21:34.029Z,62.41
2022-09-12T15:24:00.890Z,63.42
2022-09-12T15:26:30.589Z,64.29
2022-09-12T15:28:57.719Z,64.82
2022-09-12T15:31:26.249Z,66.52
2022-09-12T15:33:54.569Z,66.98
2022-09-12T15:36:23.588Z,68.23
2022-09-12T15:38:51.524Z,69.07
2022-09-12T15:41:21.579Z,70.47
2022-09-12T15:43:48.704Z,71.72
2022-09-12T15:46:17.568Z,73.19
2022-09-12T15:48:44.390Z,74.05
2022-09-12T15:51:16.071Z,74.85
2022-09-12T15:53:43.612Z,74.76
2022-09-12T15:56:10.532Z,75.35
2022-09-12T15:58:49.782Z,75.10
2022-09-12T16:01:24.525Z,76.41
2022-09-12T16:03:52.815Z,76.43
2022-09-12T16:06:19.611Z,77.19
2022-09-12T16:08:46.326Z,77.52
2022-09-12T16:11:26.676Z,78.06
2022-09-12T16:13:54.410Z,78.81
2022-09-12T16:16:21.258Z,78.79
2022-09-12T16:18:48.198Z,79.40
2022-09-12T16:21:15.859Z,79.92
2022-09-12T16:23:46.113Z,80.88
2022-09-12T16:26:12.905Z,81.55
2022-09-12T16:28:40.286Z,81.45
2022-09-12T16:31:10.726Z,81.97
2022-09-12T16:33:38.790Z,82.44
2022-09-12T16:36:13.383Z,82.78
2022-09-12T16:38:51.899Z,83.17
2022-09-12T16:41:21.420Z,83.66
2022-09-12T16:43:48.659Z,84.22
2022-09-12T16:46:28.755Z,85.43
2022-09-12T16:48:57.492Z,84.80
2022-09-12T16:51:27.300Z,85.53
2022-09-12T16:53:55.310Z,84.65
2022-09-12T16:56:22.456Z,85.11
2022-09-12T16:58:49.477Z,85.44
2022-09-12T17:01:24.161Z,85.43
2022-09-12T17:03:56.705Z,85.33
2022-09-12T17:06:25.182Z,85.85
2022-09-12T17:08:53.660Z,86.09
2022-09-12T17:11:26.963Z,86.25
2022-09-12T17:14:05.500Z,86.07
2022-09-12T17:16:35.516Z,85.90
2022-09-12T17:19:03.300Z,86.32
2022-09-12T17:21:30.223Z,87.51
2022-09-12T17:23:57.304Z,87.42
2022-09-12T17:26:25.356Z,87.24
2022-09-12T17:28:52.166Z,87.63
2022-09-12T17:31:18.998Z,88.00
2022-09-12T17:33:45.934Z,88.22
2022-09-12T17:36:16.347Z,88.54
2022-09-12T17:38:44.858Z,89.31
2022-09-12T17:41:18.039Z,90.10
2022-09-12T17:43:47.146Z,90.42
2022-09-12T17:46:14.062Z,90.50
2022-09-12T17:48:41.670Z,90.97
2022-09-12T17:51:10.344Z,91.14
2022-09-12T17:53:37.205Z,90.47
2022-09-12T17:56:05.300Z,89.70
2022-09-12T17:58:32.977Z,89.67
2022-09-12T18:01:24.096Z,89.71
2022-09-12T18:03:55.669Z,90.21
2022-09-12T18:06:23.696Z,91.01
2022-09-12T18:08:50.895Z,91.07
2022-09-12T18:11:17.845Z,92.32
2022-09-12T18:13:44.838Z,93.07
2022-09-12T18:16:13.360Z,93.47
2022-09-12T18:18:40.334Z,93.72
2022-09-12T18:21:10.251Z,95.17
2022-09-12T18:23:37.369Z,95.00
2022-09-12T18:26:07.216Z,95.62
2022-09-12T18:28:39.987Z,96.63
2022-09-12T18:31:12.459Z,97.59
2022-09-12T18:33:39.207Z,97.38
2022-09-12T18:36:07.057Z,97.42
2022-09-12T18:38:33.925Z,97.34
2022-09-12T18:41:07.499Z,97.95
2022-09-12T18:43:34.578Z,97.98
2022-09-12T18:46:05.932Z,98.32
2022-09-12T18:48:33.665Z,98.97
2022-09-12T18:51:12.796Z,99.40
2022-09-12T18:53:39.592Z,99.57
2022-09-12T18:56:09.100Z,100.00
2022-09-12T18:58:37.738Z,100.00
2022-09-12T19:01:20.620Z,100.00
2022-09-12T19:03:48.055Z,100.00
2022-09-12T19:06:20.722Z,100.00
2022-09-12T19:08:49.296Z,99.55
2022-09-12T19:11:17.354Z,98.77
2022-09-12T19:13:46.422Z,98.38
2022-09-12T19:16:19.904Z,98.01
2022-09-12T19:18:50.403Z,97.78
2022-09-12T19:21:22.201Z,98.03
2022-09-12T19:23:49.719Z,97.58
2022-09-12T19:26:17.835Z,98.23
2022-09-12T19:28:45.364Z,98.45
2022-09-12T19:31:14.632Z,98.57
2022-09-12T19:33:41.811Z,99.40
2022-09-12T19:36:40.870Z,99.64
2022-09-12T19:39:00.509Z,100.00
2022-09-12T19:41:28.650Z,100.00
2022-09-12T19:43:56.417Z,99.79
2022-09-12T19:46:25.442Z,100.00
2022-09-12T19:48:52.951Z,100.00
2022-09-12T19:51:21.535Z,100.00
2022-09-12T19:53:50.322Z,100.00
2022-09-12T19:56:20.694Z,100.00
2022-09-12T19:58:53.737Z,100.00
2022-09-12T20:01:30.246Z,100.00
2022-09-12T20:03:58.085Z,100.00
2022-09-12T20:06:27.366Z,100.00
2022-09-12T20:08:55.014Z,100.00
2022-09-12T20:11:23.995Z,100.00
2022-09-12T20:13:51.295Z,100.00
2022-09-12T20:16:21.986Z,100.00
2022-09-12T20:18:54.809Z,100.00
2022-09-12T20:21:25.391Z,100.00
2022-09-12T20:23:52.467Z,100.00
2022-09-12T20:26:20.401Z,100.00
2022-09-12T20:28:47.514Z,100.00
2022-09-12T20:31:16.479Z,100.00
2022-09-12T20:33:47.510Z,100.00
2022-09-12T20:36:19.089Z,100.00
2022-09-12T20:38:51.630Z,100.00
2022-09-12T20:41:20.064Z,100.00
2022-09-12T20:43:54.754Z,100.00
2022-09-12T20:46:23.191Z,100.00
2022-09-12T20:48:51.122Z,100.00
2022-09-12T20:51:19.555Z,100.00
2022-09-12T20:53:47.042Z,100.00
2022-09-12T20:56:15.176Z,100.00
2022-09-12T20:58:44.444Z,100.00
2022-09-12T21:01:14.003Z,100.00
2022-09-12T21:03:42.709Z,100.00
2022-09-12T21:06:12.509Z,100.00
2022-09-12T21:08:40.314Z,100.00
2022-09-12T21:11:07.865Z,100.00
2022-09-12T21:13:35.292Z,100.00
2022-09-12T21:16:08.364Z,100.00
2022-09-12T21:18:36.049Z,100.00
2022-09-12T21:21:04.010Z,100.00
2022-09-12T21:23:31.044Z,100.00
2022-09-12T21:26:02.101Z,100.00
2022-09-12T21:28:28.961Z,100.00
2022-09-12T21:30:56.278Z,100.00
2022-09-12T21:33:23.582Z,100.00
2022-09-12T21:35:50.285Z,100.00
2022-09-12T21:38:18.740Z,100.00
2022-09-12T21:40:46.733Z,100.00
2022-09-12T21:43:14.492Z,100.00
2022-09-12T21:45:41.236Z,100.00
2022-09-12T21:48:08.304Z,100.00
2022-09-12T21:50:35.170Z,100.00
2022-09-12T21:53:02.019Z,100.00
2022-09-12T21:55:28.722Z,100.00
2022-09-12T21:57:55.893Z,100.00
2022-09-12T22:00:22.938Z,100.00
2022-09-12T22:02:49.900Z,100.00
2022-09-12T22:05:17.442Z,100.00
2022-09-12T22:07:44.711Z,100.00
2022-09-12T22:10:11.550Z,100.00
2022-09-12T22:12:40.776Z,100.00
2022-09-12T22:15:36.264Z,100.00
2022-09-12T22:17:57.622Z,100.00
2022-09-12T22:20:24.496Z,100.00
2022-09-12T22:23:09.917Z,100.00
2022-09-12T22:25:36.816Z,100.00
2022-09-12T22:28:03.837Z,100.00
2022-09-12T22:30:31.773Z,100.00
2022-09-12T22:32:58.711Z,100.00
2022-09-12T22:35:25.630Z,100.00
2022-09-12T22:37:52.354Z,100.00
2022-09-12T22:40:19.689Z,100.00
2022-09-12T22:42:46.534Z,100.00
2022-09-12T22:45:13.448Z,100.00
2022-09-12T22:47:40.141Z,100.00
2022-09-12T22:50:07.307Z,100.00
2022-09-12T22:52:34.038Z,100.00
2022-09-12T22:55:00.805Z,100.00
2022-09-12T22:57:27.512Z,100.00
2022-09-12T22:59:54.223Z,100.00
2022-09-12T23:02:21.005Z,100.00
2022-09-12T23:04:48.307Z,100.00
2022-09-12T23:07:15.070Z,100.00
2022-09-12T23:09:42.117Z,100.00
2022-09-12T23:12:08.949Z,100.00
2022-09-12T23:14:35.741Z,100.00
2022-09-12T23:17:02.990Z,100.00
2022-09-12T23:19:29.721Z,100.00
2022-09-12T23:21:56.406Z,100.00
2022-09-12T23:24:23.162Z,100.00
2022-09-12T23:26:49.873Z,100.00
2022-09-12T23:29:16.808Z,100.00
2022-09-12T23:31:43.877Z,100.00
2022-09-12T23:34:10.687Z,100.00
2022-09-12T23:36:37.586Z,100.00
2022-09-12T23:39:05.049Z,100.00
2022-09-12T23:41:32.034Z,100.00
2022-09-12T23:43:58.964Z,100.00
2022-09-12T23:46:25.706Z,100.00
2022-09-12T23:48:53.630Z,100.00
2022-09-12T23:51:21.921Z,100.00
2022-09-12T23:53:49.230Z,100.00
2022-09-12T23:56:16.210Z,100.00
2022-09-12T23:58:42.969Z,100.00
